Time;durP1;ratioP1;P1;durP2;ratioP2;P2;SDS_P1;SDS_P2;PMS_P1;PMS_P2;Temp;Humidity;BMP_temperature;BMP_pressure;BME280_temperature;BME280_humidity;BME280_pressure;Samples;Min_cycle;Max_cycle;Signal;HPM_P1;HPM_P2
2022/11/23 00:01:46;;;;;;;10.18;5.57;;;9.40;91.60;;;;;;5040099;28;20029;-68
2022/11/23 00:04:12;;;;;;;8.57;5.57;;;9.40;91.60;;;;;;5037781;28;20079;-69
2022/11/23 00:06:39;;;;;;;8.18;4.88;;;9.40;91.70;;;;;;5043884;28;20464;-69
2022/11/23 00:09:04;;;;;;;7.53;4.63;;;9.40;91.70;;;;;;5045729;28;20025;-69
2022/11/23 00:11:32;;;;;;;7.40;4.60;;;9.50;91.70;;;;;;5037136;28;20082;-69
2022/11/23 00:13:57;;;;;;;6.85;4.50;;;9.50;91.70;;;;;;5038265;28;20484;-69
2022/11/23 00:16:26;;;;;;;9.27;5.50;;;9.60;91.70;;;;;;5035606;28;20062;-69
2022/11/23 00:18:54;;;;;;;9.75;6.63;;;9.60;91.60;;;;;;5034795;28;20033;-70
2022/11/23 00:21:21;;;;;;;8.35;4.90;;;9.50;91.60;;;;;;5035524;28;20021;-68
2022/11/23 00:23:47;;;;;;;12.63;6.47;;;9.50;91.60;;;;;;5047304;28;20028;-69
2022/11/23 00:26:13;;;;;;;9.18;5.47;;;9.60;91.60;;;;;;5044940;28;20404;-69
2022/11/23 00:28:39;;;;;;;8.68;5.28;;;9.60;91.60;;;;;;5048850;28;20048;-68
2022/11/23 00:31:06;;;;;;;9.52;5.90;;;9.50;91.60;;;;;;5040299;28;20029;-68
2022/11/23 00:33:32;;;;;;;8.80;4.50;;;9.60;91.70;;;;;;5047063;28;20022;-69
2022/11/23 00:36:02;;;;;;;12.50;7.00;;;9.60;91.70;;;;;;5044478;28;20041;-70
2022/11/23 00:38:28;;;;;;;7.93;4.38;;;9.60;91.60;;;;;;5034209;28;20021;-70
2022/11/23 00:41:01;;;;;;;7.80;5.18;;;9.60;91.60;;;;;;5035495;28;20025;-70
2022/11/23 00:43:28;;;;;;;8.82;4.90;;;9.70;91.60;;;;;;5040004;28;20519;-70
2022/11/23 00:46:07;;;;;;;10.70;6.10;;;9.70;91.60;;;;;;5035913;28;20025;-70
2022/11/23 00:48:33;;;;;;;9.93;5.60;;;9.70;91.60;;;;;;5045645;28;20107;-69
2022/11/23 00:51:01;;;;;;;7.60;4.82;;;9.70;91.60;;;;;;5045989;28;20028;-69
2022/11/23 00:53:27;;;;;;;10.18;5.05;;;9.70;91.60;;;;;;5048759;28;20044;-70
2022/11/23 00:55:54;;;;;;;10.65;5.97;;;9.70;91.50;;;;;;5037874;28;20028;-69
2022/11/23 00:58:20;;;;;;;10.23;5.78;;;9.70;91.50;;;;;;5044510;28;20055;-69
2022/11/23 01:00:46;;;;;;;9.65;5.35;;;9.70;91.50;;;;;;5045700;28;20052;-70
2022/11/23 01:03:13;;;;;;;8.10;6.15;;;9.80;91.50;;;;;;5044038;28;20045;-70
2022/11/23 01:05:38;;;;;;;12.90;7.50;;;9.80;91.50;;;;;;5030081;28;20033;-70
2022/11/23 01:08:05;;;;;;;11.48;6.80;;;9.80;91.50;;;;;;5048892;28;20082;-69
2022/11/23 01:10:31;;;;;;;16.08;8.60;;;9.70;91.50;;;;;;5041038;28;20099;-71
2022/11/23 01:12:57;;;;;;;12.45;6.68;;;9.70;91.50;;;;;;5043428;28;20021;-69
2022/11/23 01:15:23;;;;;;;10.00;7.00;;;9.70;91.50;;;;;;5049207;28;20029;-71
2022/11/23 01:17:48;;;;;;;9.50;5.60;;;9.70;91.50;;;;;;5034004;28;20449;-68
2022/11/23 01:20:14;;;;;;;10.85;6.55;;;9.80;91.50;;;;;;5042052;28;20021;-71
2022/11/23 01:22:40;;;;;;;8.95;5.28;;;9.70;91.40;;;;;;5042882;28;20667;-70
2022/11/23 01:25:07;;;;;;;9.90;6.10;;;9.80;91.50;;;;;;5038784;28;20490;-71
2022/11/23 01:27:32;;;;;;;14.57;7.40;;;9.80;91.50;;;;;;5039389;28;20083;-70
2022/11/23 01:29:58;;;;;;;12.32;5.80;;;9.80;91.50;;;;;;5046353;28;20028;-71
2022/11/23 01:32:24;;;;;;;10.73;5.82;;;9.70;91.50;;;;;;5038763;28;20472;-71
2022/11/23 01:34:49;;;;;;;11.50;5.97;;;9.80;91.50;;;;;;5045715;28;20391;-73
2022/11/23 01:37:15;;;;;;;11.18;6.40;;;9.80;91.50;;;;;;5046503;28;20521;-69
2022/11/23 01:39:41;;;;;;;15.45;7.22;;;9.80;91.40;;;;;;5044265;28;20563;-71
2022/11/23 01:42:07;;;;;;;12.02;5.70;;;9.80;91.40;;;;;;5038244;28;20030;-71
2022/11/23 01:44:35;;;;;;;11.00;5.70;;;9.70;91.40;;;;;;5047606;28;20029;-70
2022/11/23 01:47:03;;;;;;;11.70;5.53;;;9.70;91.40;;;;;;5048598;28;20108;-69
2022/11/23 01:49:41;;;;;;;7.72;4.43;;;9.80;91.40;;;;;;5045084;28;20448;-71
2022/11/23 01:52:25;;;;;;;9.32;4.43;;;9.80;91.50;;;;;;5041775;28;20024;-69
2022/11/23 01:54:54;;;;;;;14.48;6.53;;;9.80;91.40;;;;;;5042817;28;20029;-69
2022/11/23 01:57:24;;;;;;;12.73;6.35;;;9.80;91.40;;;;;;5044261;28;20028;-69
2022/11/23 01:59:51;;;;;;;13.15;5.95;;;9.90;91.40;;;;;;5046567;28;20029;-72
2022/11/23 02:02:17;;;;;;;13.35;5.70;;;9.80;91.40;;;;;;5049498;28;20029;-69
2022/11/23 02:04:46;;;;;;;12.88;5.70;;;9.80;91.40;;;;;;5039319;28;20033;-69
2022/11/23 02:07:14;;;;;;;8.25;4.47;;;9.80;91.40;;;;;;5038187;28;20025;-69
2022/11/23 02:09:41;;;;;;;11.98;4.80;;;9.90;91.40;;;;;;5035495;28;20430;-68
2022/11/23 02:12:11;;;;;;;8.93;4.03;;;9.80;91.30;;;;;;5044404;28;20025;-67
2022/11/23 02:14:36;;;;;;;11.32;4.80;;;9.90;91.30;;;;;;5045229;28;20043;-66
2022/11/23 02:17:03;;;;;;;11.88;4.22;;;9.90;91.20;;;;;;5047243;28;20033;-67
2022/11/23 02:19:50;;;;;;;10.85;4.60;;;9.90;91.20;;;;;;5045774;28;20438;-66
2022/11/23 02:22:24;;;;;;;10.30;4.22;;;9.90;91.20;;;;;;5037218;28;20033;-71
2022/11/23 02:24:53;;;;;;;11.45;4.03;;;9.90;91.20;;;;;;5049711;28;20034;-70
2022/11/23 02:27:20;;;;;;;9.88;4.22;;;9.90;91.20;;;;;;5048279;28;20460;-71
2022/11/23 02:29:47;;;;;;;9.32;3.58;;;9.90;91.10;;;;;;5043850;28;20159;-69
2022/11/23 02:32:21;;;;;;;10.07;4.28;;;9.90;91.10;;;;;;5035945;28;20023;-70
2022/11/23 02:34:47;;;;;;;9.85;4.30;;;9.90;91.10;;;;;;5042188;28;20021;-70
2022/11/23 02:37:13;;;;;;;10.05;4.20;;;9.90;91.10;;;;;;5043542;28;20155;-72
2022/11/23 02:39:43;;;;;;;8.73;3.35;;;9.80;91.00;;;;;;5037212;28;20458;-70
2022/11/23 02:42:09;;;;;;;11.65;4.15;;;9.90;91.10;;;;;;5046593;28;20079;-69
2022/11/23 02:45:00;;;;;;;10.50;4.50;;;9.80;91.00;;;;;;5046739;28;20029;-70
2022/11/23 02:47:25;;;;;;;8.77;3.75;;;9.80;91.00;;;;;;5038174;28;20024;-70
2022/11/23 02:49:51;;;;;;;9.13;3.85;;;9.80;91.00;;;;;;5041555;28;20029;-70
2022/11/23 02:52:17;;;;;;;11.15;4.05;;;9.80;90.90;;;;;;5038749;28;20037;-71
2022/11/23 02:54:43;;;;;;;8.38;3.58;;;9.80;90.90;;;;;;5045049;28;20092;-69
2022/11/23 02:57:09;;;;;;;11.63;4.20;;;9.80;90.90;;;;;;5038868;28;20545;-69
2022/11/23 02:59:35;;;;;;;11.13;4.43;;;9.80;90.80;;;;;;5043700;28;20024;-68
2022/11/23 03:02:01;;;;;;;8.70;4.15;;;9.80;90.80;;;;;;5042860;28;20040;-69
2022/11/23 03:04:27;;;;;;;10.73;4.20;;;9.70;90.70;;;;;;5048160;28;20017;-71
2022/11/23 03:06:52;;;;;;;10.30;3.28;;;9.70;90.70;;;;;;5041208;28;20021;-69
2022/11/23 03:09:18;;;;;;;8.63;3.65;;;9.70;90.70;;;;;;5043869;28;20430;-70
2022/11/23 03:11:44;;;;;;;7.57;3.10;;;9.70;90.70;;;;;;5045098;28;20811;-70
2022/11/23 03:14:09;;;;;;;8.85;3.30;;;9.80;90.70;;;;;;5045883;28;20041;-69
2022/11/23 03:16:35;;;;;;;9.73;3.30;;;9.80;90.70;;;;;;5041755;28;20036;-70
2022/11/23 03:19:01;;;;;;;10.18;4.05;;;9.80;90.70;;;;;;5041015;28;20052;-72
2022/11/23 03:21:27;;;;;;;6.03;3.78;;;9.90;90.60;;;;;;5039547;28;20021;-69
2022/11/23 03:23:53;;;;;;;7.35;3.50;;;9.80;90.50;;;;;;5047810;28;20597;-69
2022/11/23 03:26:19;;;;;;;8.98;3.65;;;9.90;90.50;;;;;;5041731;28;20484;-70
2022/11/23 03:28:44;;;;;;;8.45;4.03;;;9.80;90.40;;;;;;5031958;28;20036;-70
2022/11/23 03:31:10;;;;;;;6.50;2.70;;;9.80;90.40;;;;;;5029808;28;20037;-71
2022/11/23 03:33:35;;;;;;;7.97;3.38;;;9.90;90.40;;;;;;5045096;28;20103;-70
2022/11/23 03:36:01;;;;;;;6.63;3.15;;;9.80;90.30;;;;;;5044733;28;20472;-72
2022/11/23 03:38:26;;;;;;;10.18;3.40;;;9.90;90.30;;;;;;5039959;28;20033;-70
2022/11/23 03:40:52;;;;;;;6.68;2.72;;;9.90;90.30;;;;;;5036909;28;20021;-70
2022/11/23 03:43:18;;;;;;;6.10;2.15;;;9.90;90.30;;;;;;5043782;28;20033;-71
2022/11/23 03:45:44;;;;;;;6.13;2.38;;;9.90;90.30;;;;;;5042664;28;20048;-72
2022/11/23 03:48:09;;;;;;;7.35;2.95;;;10.00;90.20;;;;;;5043100;28;20467;-72
2022/11/23 03:50:35;;;;;;;5.13;2.40;;;10.00;90.10;;;;;;5046603;28;20039;-72
2022/11/23 03:53:01;;;;;;;8.65;2.90;;;10.00;90.10;;;;;;5045439;28;20021;-70
2022/11/23 03:55:26;;;;;;;7.68;3.20;;;10.00;90.10;;;;;;5043890;28;20025;-70
2022/11/23 03:57:58;;;;;;;7.20;2.92;;;9.90;90.00;;;;;;5036913;28;20071;-72
2022/11/23 04:00:25;;;;;;;8.43;2.80;;;9.90;90.00;;;;;;5049031;28;20029;-71
2022/11/23 04:02:50;;;;;;;6.75;2.90;;;10.00;90.00;;;;;;5049688;28;20387;-68
2022/11/23 04:05:16;;;;;;;10.57;2.92;;;10.00;90.00;;;;;;5035836;28;20033;-71
2022/11/23 04:07:42;;;;;;;8.43;2.65;;;10.00;90.00;;;;;;5034626;28;20029;-69
2022/11/23 04:10:07;;;;;;;6.43;2.78;;;10.00;89.90;;;;;;5046188;28;20238;-69
2022/11/23 04:12:33;;;;;;;9.07;2.88;;;9.90;89.80;;;;;;5039955;28;20025;-70
2022/11/23 04:14:59;;;;;;;9.32;2.50;;;9.90;89.80;;;;;;5044875;28;20021;-70
2022/11/23 04:17:24;;;;;;;11.88;3.53;;;9.90;89.80;;;;;;5033810;28;20100;-71
2022/11/23 04:19:50;;;;;;;9.18;2.85;;;9.90;89.70;;;;;;5045522;28;20517;-70
2022/11/23 04:22:16;;;;;;;9.80;3.10;;;9.90;89.70;;;;;;5048410;28;20102;-69
2022/11/23 04:24:41;;;;;;;7.70;2.72;;;9.90;89.80;;;;;;5037263;28;20036;-69
2022/11/23 04:27:07;;;;;;;11.57;3.25;;;9.90;89.70;;;;;;5038073;28;20029;-71
2022/11/23 04:29:32;;;;;;;8.25;3.13;;;9.90;89.70;;;;;;5039292;28;20032;-72
2022/11/23 04:31:58;;;;;;;10.07;3.03;;;9.90;89.60;;;;;;5033761;28;20030;-70
2022/11/23 04:34:23;;;;;;;7.35;2.60;;;9.90;89.70;;;;;;5040708;28;20025;-72
2022/11/23 04:36:49;;;;;;;6.22;2.47;;;9.90;89.70;;;;;;5037523;28;20091;-72
2022/11/23 04:39:14;;;;;;;8.23;2.42;;;9.90;89.70;;;;;;5045433;28;20102;-70
2022/11/23 04:41:40;;;;;;;6.07;1.95;;;9.90;89.60;;;;;;5045733;28;20044;-70
2022/11/23 04:44:06;;;;;;;7.70;2.38;;;9.90;89.70;;;;;;5045352;28;20047;-70
2022/11/23 04:46:34;;;;;;;10.23;3.13;;;10.00;89.60;;;;;;5029512;28;20033;-71
2022/11/23 04:48:59;;;;;;;10.13;2.92;;;9.90;89.50;;;;;;5030123;28;20163;-71
2022/11/23 04:51:25;;;;;;;7.45;2.63;;;9.90;89.40;;;;;;5038864;28;20108;-70
2022/11/23 04:53:51;;;;;;;9.77;3.45;;;9.90;89.50;;;;;;5043106;28;20025;-70
2022/11/23 04:56:17;;;;;;;7.80;2.97;;;9.90;89.50;;;;;;5048104;28;20375;-70
2022/11/23 04:58:42;;;;;;;7.32;2.97;;;9.90;89.50;;;;;;5035685;28;20032;-71
2022/11/23 05:01:08;;;;;;;10.70;3.03;;;9.80;89.40;;;;;;5048371;28;20033;-70
2022/11/23 05:03:33;;;;;;;8.77;2.53;;;9.80;89.50;;;;;;5032191;28;20432;-71
2022/11/23 05:06:00;;;;;;;6.22;2.50;;;9.90;89.60;;;;;;5045992;28;20530;-69
2022/11/23 05:08:26;;;;;;;11.73;2.92;;;9.90;89.60;;;;;;5038630;28;20479;-70
2022/11/23 05:10:52;;;;;;;7.78;2.30;;;9.90;89.40;;;;;;5040078;28;20040;-70
2022/11/23 05:13:17;;;;;;;8.13;2.75;;;9.90;89.40;;;;;;5048653;28;20036;-70
2022/11/23 05:15:43;;;;;;;9.20;2.50;;;9.90;89.30;;;;;;5043020;28;20078;-69
2022/11/23 05:18:10;;;;;;;10.50;2.80;;;9.90;89.30;;;;;;5030818;28;20048;-70
2022/11/23 05:20:36;;;;;;;7.60;2.50;;;9.80;89.20;;;;;;5048958;28;20029;-70
2022/11/23 05:23:02;;;;;;;8.45;2.70;;;9.80;89.30;;;;;;5040230;28;20037;-70
2022/11/23 05:25:28;;;;;;;8.25;2.65;;;9.80;89.10;;;;;;5045946;28;20511;-70
2022/11/23 05:27:54;;;;;;;8.85;3.03;;;9.80;89.00;;;;;;5040288;28;20068;-70
2022/11/23 05:30:20;;;;;;;5.75;2.08;;;9.80;89.00;;;;;;5040154;28;20037;-68
2022/11/23 05:32:46;;;;;;;8.02;2.30;;;9.90;89.30;;;;;;5047585;28;20732;-69
2022/11/23 05:35:12;;;;;;;9.98;2.30;;;9.80;89.00;;;;;;5040081;28;20030;-69
2022/11/23 05:37:38;;;;;;;6.57;2.20;;;9.90;89.00;;;;;;5045892;28;20104;-70
2022/11/23 05:40:04;;;;;;;7.85;2.13;;;9.90;88.90;;;;;;5041237;28;20029;-70
2022/11/23 05:42:30;;;;;;;11.63;2.97;;;9.90;88.80;;;;;;5048507;28;20100;-69
2022/11/23 05:44:55;;;;;;;6.97;2.30;;;9.90;88.60;;;;;;5042978;28;20117;-70
2022/11/23 05:47:21;;;;;;;7.93;2.50;;;9.90;88.60;;;;;;5039531;28;20052;-70
2022/11/23 05:49:46;;;;;;;8.77;2.25;;;9.90;88.50;;;;;;5046010;28;20021;-71
2022/11/23 05:52:12;;;;;;;9.60;2.10;;;9.90;88.40;;;;;;5043733;28;20041;-69
2022/11/23 05:54:37;;;;;;;9.48;2.92;;;9.90;88.30;;;;;;5039904;28;20078;-69
2022/11/23 05:57:03;;;;;;;9.23;2.35;;;9.90;88.10;;;;;;5039321;28;20111;-72
2022/11/23 05:59:29;;;;;;;8.57;2.63;;;9.90;88.00;;;;;;5029274;28;20086;-70
2022/11/23 06:01:54;;;;;;;9.95;2.40;;;9.90;88.00;;;;;;5039556;28;20048;-69
2022/11/23 06:04:20;;;;;;;8.65;2.47;;;9.80;88.00;;;;;;5035082;28;20145;-72
2022/11/23 06:06:45;;;;;;;9.45;2.22;;;9.80;88.10;;;;;;5040766;28;20387;-69
2022/11/23 06:09:11;;;;;;;6.97;2.60;;;9.90;88.10;;;;;;5037071;28;20476;-68
2022/11/23 06:11:37;;;;;;;6.50;2.13;;;9.80;88.10;;;;;;5037698;28;20032;-69
2022/11/23 06:14:03;;;;;;;7.63;2.60;;;9.90;88.20;;;;;;5047437;28;20131;-70
2022/11/23 06:16:28;;;;;;;6.68;2.38;;;9.90;88.20;;;;;;5041555;28;20424;-69
2022/11/23 06:18:54;;;;;;;7.88;2.47;;;9.80;88.00;;;;;;5043566;28;20086;-70
2022/11/23 06:21:20;;;;;;;7.22;2.63;;;9.90;88.10;;;;;;5043876;28;20047;-68
2022/11/23 06:23:46;;;;;;;9.10;2.47;;;9.90;88.20;;;;;;5044509;28;20060;-69
2022/11/23 06:26:12;;;;;;;13.75;3.42;;;9.90;88.10;;;;;;5045056;28;20032;-69
2022/11/23 06:28:37;;;;;;;8.32;2.47;;;9.90;88.00;;;;;;5044134;28;20044;-70
2022/11/23 06:31:05;;;;;;;10.65;2.60;;;9.80;88.00;;;;;;5044286;28;20021;-69
2022/11/23 06:33:31;;;;;;;8.80;2.60;;;9.80;87.90;;;;;;5047830;28;20475;-70
2022/11/23 06:35:59;;;;;;;8.63;2.30;;;9.80;87.90;;;;;;5048484;28;20021;-70
2022/11/23 06:38:25;;;;;;;12.23;2.95;;;9.80;87.90;;;;;;5047087;28;20016;-70
2022/11/23 06:40:51;;;;;;;7.53;2.50;;;9.90;87.80;;;;;;5047870;28;20024;-70
2022/11/23 06:43:17;;;;;;;8.93;3.15;;;9.90;87.60;;;;;;5036804;28;20074;-69
2022/11/23 06:45:43;;;;;;;11.55;3.05;;;9.80;87.50;;;;;;5034619;28;20579;-69
2022/11/23 06:48:08;;;;;;;8.80;2.75;;;9.80;87.50;;;;;;5048761;28;20029;-69
2022/11/23 06:50:34;;;;;;;14.00;3.05;;;9.80;87.40;;;;;;5045470;28;20495;-69
2022/11/23 06:53:00;;;;;;;7.80;2.83;;;9.80;87.30;;;;;;5047692;28;20029;-70
2022/11/23 06:55:26;;;;;;;10.65;3.00;;;9.80;87.20;;;;;;5041761;28;20108;-69
2022/11/23 06:57:51;;;;;;;11.60;3.08;;;9.80;87.10;;;;;;5037049;28;20030;-71
2022/11/23 07:00:18;;;;;;;7.90;2.75;;;9.80;87.10;;;;;;5038958;28;20109;-71
2022/11/23 07:02:51;;;;;;;10.98;3.35;;;9.80;87.20;;;;;;5034499;28;20053;-70
2022/11/23 07:05:17;;;;;;;10.77;3.15;;;9.80;87.10;;;;;;5038710;28;20017;-69
2022/11/23 07:07:43;;;;;;;13.50;3.25;;;9.80;87.10;;;;;;5040475;28;20025;-70
2022/11/23 07:10:08;;;;;;;14.43;2.90;;;9.80;86.90;;;;;;5040207;28;20510;-71
2022/11/23 07:12:34;;;;;;;11.93;3.30;;;9.70;87.00;;;;;;5043606;28;20029;-69
2022/11/23 07:15:00;;;;;;;9.98;2.55;;;9.70;86.70;;;;;;5044387;28;20029;-71
2022/11/23 07:17:26;;;;;;;8.52;2.75;;;9.70;86.70;;;;;;5039947;28;20025;-70
2022/11/23 07:19:51;;;;;;;16.45;3.45;;;9.70;86.80;;;;;;5042909;28;20376;-69
2022/11/23 07:22:17;;;;;;;10.15;2.90;;;9.70;86.50;;;;;;5047656;28;20040;-70
2022/11/23 07:24:42;;;;;;;10.68;3.03;;;9.70;86.40;;;;;;5032067;28;20061;-69
2022/11/23 07:27:08;;;;;;;14.77;3.25;;;9.70;86.40;;;;;;5042486;28;20036;-71
2022/11/23 07:29:34;;;;;;;10.70;2.55;;;9.70;86.40;;;;;;5034318;28;20096;-68
2022/11/23 07:32:00;;;;;;;11.73;2.60;;;9.70;86.30;;;;;;5039677;28;20118;-69
2022/11/23 07:34:27;;;;;;;10.18;2.70;;;9.70;86.40;;;;;;5039853;28;20100;-69
2022/11/23 07:36:53;;;;;;;12.70;2.80;;;9.70;86.40;;;;;;5042938;28;20117;-69
2022/11/23 07:39:19;;;;;;;12.95;2.55;;;9.70;86.30;;;;;;5046088;28;20353;-69
2022/11/23 07:41:47;;;;;;;16.35;3.33;;;9.70;86.00;;;;;;5042074;28;20030;-69
2022/11/23 07:44:13;;;;;;;11.98;3.20;;;9.60;85.80;;;;;;5053702;28;20104;-69
2022/11/23 07:46:39;;;;;;;11.18;2.70;;;9.70;86.00;;;;;;5044149;28;20111;-69
2022/11/23 07:49:04;;;;;;;12.25;2.90;;;9.70;86.10;;;;;;5043671;28;20017;-69
2022/11/23 07:51:30;;;;;;;11.63;3.38;;;9.70;86.10;;;;;;5045766;28;20497;-69
2022/11/23 07:53:56;;;;;;;15.50;2.83;;;9.60;86.00;;;;;;5047128;28;20477;-69
2022/11/23 07:56:22;;;;;;;15.82;3.58;;;9.60;86.10;;;;;;5045104;28;20094;-69
2022/11/23 07:58:48;;;;;;;10.93;2.63;;;9.60;86.20;;;;;;5039365;28;20109;-69
2022/11/23 08:01:18;;;;;;;13.43;3.22;;;9.60;86.20;;;;;;5044589;28;20096;-69
2022/11/23 08:03:44;;;;;;;9.90;2.90;;;9.60;86.30;;;;;;5047631;28;20029;-69
2022/11/23 08:06:11;;;;;;;11.60;2.65;;;9.60;86.30;;;;;;5040678;28;20443;-69
2022/11/23 08:08:37;;;;;;;10.18;2.47;;;9.60;86.30;;;;;;5049737;28;20024;-69
2022/11/23 08:11:06;;;;;;;7.05;2.20;;;9.60;86.50;;;;;;5045302;28;20025;-70
2022/11/23 08:13:33;;;;;;;13.32;2.88;;;9.60;86.70;;;;;;5050101;28;20036;-69
2022/11/23 08:15:59;;;;;;;13.23;2.90;;;9.60;86.80;;;;;;5047837;28;20112;-69
2022/11/23 08:18:26;;;;;;;12.27;3.17;;;9.60;86.90;;;;;;5043094;28;20136;-69
2022/11/23 08:20:52;;;;;;;8.65;2.58;;;9.50;87.00;;;;;;5047781;28;20083;-69
2022/11/23 08:23:18;;;;;;;12.20;2.83;;;9.50;87.20;;;;;;5050480;28;20082;-69
2022/11/23 08:25:44;;;;;;;10.90;2.85;;;9.60;87.30;;;;;;5041205;28;20091;-69
2022/11/23 08:28:09;;;;;;;11.40;3.15;;;9.60;87.30;;;;;;5044743;28;20029;-69
2022/11/23 08:30:35;;;;;;;12.32;2.70;;;9.60;87.30;;;;;;5053075;28;20071;-69
2022/11/23 08:33:05;;;;;;;15.95;3.08;;;9.60;87.20;;;;;;5044095;28;20040;-69
2022/11/23 08:35:35;;;;;;;10.80;2.95;;;9.70;87.10;;;;;;5047222;28;20092;-69
2022/11/23 08:38:01;;;;;;;11.00;2.65;;;9.60;86.90;;;;;;5044408;28;20044;-69
2022/11/23 08:40:27;;;;;;;10.13;2.50;;;9.70;86.90;;;;;;5048782;28;20028;-68
2022/11/23 08:42:53;;;;;;;9.68;2.45;;;9.70;86.90;;;;;;5046724;28;20029;-69
2022/11/23 08:45:19;;;;;;;9.85;2.50;;;9.80;86.80;;;;;;5048771;28;20495;-70
2022/11/23 08:47:44;;;;;;;6.88;2.13;;;9.80;86.70;;;;;;5042479;28;20037;-69
2022/11/23 08:50:10;;;;;;;12.85;2.97;;;9.80;86.60;;;;;;5046261;28;20021;-69
2022/11/23 08:52:35;;;;;;;12.43;2.88;;;9.90;86.50;;;;;;5042096;28;20021;-69
2022/11/23 08:55:01;;;;;;;12.50;3.10;;;9.90;86.00;;;;;;5035465;28;20059;-69
2022/11/23 08:57:27;;;;;;;10.32;2.95;;;9.90;85.80;;;;;;5048348;28;20049;-69
2022/11/23 08:59:53;;;;;;;10.10;2.58;;;9.90;86.40;;;;;;5045408;28;20063;-69
2022/11/23 09:02:18;;;;;;;7.32;1.95;;;10.00;85.80;;;;;;5044706;28;20053;-69
2022/11/23 09:04:44;;;;;;;9.35;2.60;;;10.10;85.60;;;;;;5042442;28;20033;-69
2022/11/23 09:07:09;;;;;;;12.75;3.10;;;10.10;85.30;;;;;;5043468;28;20033;-69
2022/11/23 09:09:35;;;;;;;10.02;2.65;;;10.20;84.70;;;;;;5046888;28;20573;-69
2022/11/23 09:12:01;;;;;;;15.38;3.42;;;10.20;83.70;;;;;;5046506;28;20028;-69
2022/11/23 09:14:26;;;;;;;13.73;3.05;;;10.30;83.00;;;;;;5045477;28;20029;-69
2022/11/23 09:16:53;;;;;;;9.85;2.25;;;10.30;82.70;;;;;;5046807;28;20166;-69
2022/11/23 09:19:19;;;;;;;7.75;2.10;;;10.50;82.70;;;;;;5045652;28;20061;-69
2022/11/23 09:21:44;;;;;;;13.93;2.78;;;10.50;82.30;;;;;;5043639;28;20033;-69
2022/11/23 09:24:11;;;;;;;11.55;2.80;;;10.60;82.10;;;;;;5039028;28;20035;-70
2022/11/23 09:26:37;;;;;;;10.65;2.72;;;10.70;81.80;;;;;;5042807;28;20388;-69
2022/11/23 09:29:04;;;;;;;12.77;3.10;;;10.80;81.60;;;;;;5041437;28;20446;-69
2022/11/23 09:31:29;;;;;;;12.07;2.72;;;10.90;80.90;;;;;;5044758;28;20102;-69
2022/11/23 09:33:55;;;;;;;11.60;3.30;;;10.80;79.60;;;;;;5043828;28;20059;-70
2022/11/23 09:36:23;;;;;;;12.00;2.30;;;10.60;78.90;;;;;;5044985;28;20502;-70
2022/11/23 09:38:50;;;;;;;10.95;2.80;;;10.50;78.90;;;;;;5038318;28;20095;-69
2022/11/23 09:41:40;;;;;;;14.50;3.17;;;10.50;79.20;;;;;;5040665;28;20041;-69
2022/11/23 09:44:27;;;;;;;13.48;3.10;;;10.40;78.90;;;;;;5036899;28;20476;-69
2022/11/23 09:47:29;;;;;;;16.48;2.90;;;10.40;78.80;;;;;;5047365;28;20025;-69
2022/11/23 09:50:06;;;;;;;10.45;2.97;;;10.40;78.80;;;;;;5042941;28;20033;-68
2022/11/23 09:52:34;;;;;;;14.05;3.17;;;10.40;78.80;;;;;;5044032;28;20059;-68
2022/11/23 09:55:05;;;;;;;9.85;2.67;;;10.40;78.80;;;;;;5044318;28;20020;-69
2022/11/23 09:57:34;;;;;;;8.07;2.20;;;10.40;78.90;;;;;;5048231;28;20025;-69
2022/11/23 10:00:05;;;;;;;12.32;3.10;;;10.40;79.20;;;;;;5035109;28;20115;-70
2022/11/23 10:02:35;;;;;;;11.17;2.57;;;10.40;78.80;;;;;;5039349;28;20029;-69
2022/11/23 10:05:03;;;;;;;11.35;2.83;;;10.40;78.30;;;;;;5044647;28;20052;-69
2022/11/23 10:07:34;;;;;;;12.00;3.17;;;10.40;78.40;;;;;;5038802;28;20033;-70
2022/11/23 10:10:17;;;;;;;10.40;2.80;;;10.30;77.70;;;;;;5048549;28;20391;-70
2022/11/23 10:13:07;;;;;;;11.02;2.60;;;10.30;77.60;;;;;;5037507;28;20084;-70
2022/11/23 10:15:44;;;;;;;10.10;2.67;;;10.30;77.90;;;;;;5044411;28;20032;-69
2022/11/23 10:18:32;;;;;;;10.52;2.78;;;10.40;78.10;;;;;;5037219;28;20430;-69
2022/11/23 10:21:22;;;;;;;11.52;2.88;;;10.40;77.70;;;;;;5039825;28;20029;-70
2022/11/23 10:24:02;;;;;;;10.27;2.47;;;10.40;77.40;;;;;;5042283;28;20041;-70
2022/11/23 10:26:35;;;;;;;9.70;2.17;;;10.40;77.30;;;;;;5045034;28;20377;-69
2022/11/23 10:29:21;;;;;;;13.50;2.53;;;10.40;77.20;;;;;;5041651;28;20013;-70
2022/11/23 10:31:48;;;;;;;8.02;2.25;;;10.40;76.60;;;;;;5040265;28;20025;-69
2022/11/23 10:34:19;;;;;;;9.20;2.50;;;10.50;76.50;;;;;;5046723;28;20067;-69
2022/11/23 10:36:45;;;;;;;10.10;2.70;;;10.40;76.80;;;;;;5038533;28;20029;-69
2022/11/23 10:39:27;;;;;;;10.43;2.65;;;10.50;76.20;;;;;;5034946;28;20099;-69
2022/11/23 10:42:00;;;;;;;6.68;1.92;;;10.50;76.30;;;;;;5042515;28;20058;-69
2022/11/23 10:44:30;;;;;;;13.25;2.80;;;10.60;76.40;;;;;;5048159;28;20040;-69
2022/11/23 10:46:57;;;;;;;9.10;2.22;;;10.60;76.10;;;;;;5034237;28;20076;-70
2022/11/23 10:49:28;;;;;;;9.15;2.50;;;10.60;75.40;;;;;;5038328;28;20021;-69
2022/11/23 10:51:58;;;;;;;10.17;2.30;;;10.50;75.10;;;;;;5045742;28;20021;-70
2022/11/23 10:54:33;;;;;;;9.75;3.10;;;10.50;75.10;;;;;;5032636;28;20287;-69
2022/11/23 10:57:01;;;;;;;8.07;2.20;;;10.60;75.40;;;;;;5041731;28;20613;-69
2022/11/23 10:59:28;;;;;;;14.10;2.63;;;10.60;75.30;;;;;;5055093;28;20028;-69
2022/11/23 11:02:12;;;;;;;9.80;2.35;;;10.70;75.20;;;;;;5037932;28;20102;-69
2022/11/23 11:04:38;;;;;;;8.18;2.13;;;10.70;74.90;;;;;;5038414;28;20040;-70
2022/11/23 11:07:21;;;;;;;10.13;2.40;;;10.80;75.10;;;;;;5041928;28;20025;-70
2022/11/23 11:10:02;;;;;;;11.13;2.38;;;10.90;75.30;;;;;;5038799;28;20444;-69
2022/11/23 11:12:31;;;;;;;6.80;2.40;;;10.90;74.30;;;;;;5041924;28;20021;-69
2022/11/23 11:15:08;;;;;;;9.32;2.38;;;10.90;74.10;;;;;;5052015;28;20017;-70
2022/11/23 11:17:36;;;;;;;6.90;2.25;;;10.90;73.60;;;;;;5045860;28;20067;-71
2022/11/23 11:20:22;;;;;;;9.38;1.90;;;10.90;73.40;;;;;;5043286;28;20025;-69
2022/11/23 11:22:48;;;;;;;7.00;2.10;;;10.90;73.40;;;;;;5047686;28;20025;-69
2022/11/23 11:25:38;;;;;;;6.07;1.92;;;10.90;73.70;;;;;;5046591;28;20030;-69
2022/11/23 11:28:17;;;;;;;7.30;1.92;;;11.00;73.80;;;;;;5046533;28;20024;-70
2022/11/23 11:31:11;;;;;;;7.28;1.83;;;11.10;73.70;;;;;;5042996;28;20119;-70
2022/11/23 11:33:45;;;;;;;9.07;2.25;;;11.20;73.00;;;;;;5042642;28;20025;-69
2022/11/23 11:36:15;;;;;;;8.68;2.65;;;11.20;72.20;;;;;;5050250;28;20120;-69
2022/11/23 11:38:45;;;;;;;8.50;2.17;;;11.30;71.90;;;;;;5051619;28;20039;-69
2022/11/23 11:41:14;;;;;;;6.78;1.90;;;11.30;71.50;;;;;;5047768;28;20124;-70
2022/11/23 11:43:43;;;;;;;8.57;2.20;;;11.30;71.30;;;;;;5044529;28;20038;-70
2022/11/23 11:46:20;;;;;;;6.82;2.10;;;11.40;71.50;;;;;;5047502;28;20064;-70
2022/11/23 11:49:04;;;;;;;6.55;1.98;;;11.40;70.50;;;;;;5051532;28;20127;-70
2022/11/23 11:51:35;;;;;;;7.88;1.90;;;11.50;71.00;;;;;;5041408;28;20028;-70
2022/11/23 11:54:21;;;;;;;6.05;2.13;;;11.60;71.00;;;;;;5043214;28;20031;-71
2022/11/23 11:56:59;;;;;;;6.38;1.80;;;11.80;71.70;;;;;;5048549;28;20472;-70
2022/11/23 11:59:33;;;;;;;8.82;2.10;;;12.90;69.50;;;;;;5048171;28;20075;-70
2022/11/23 12:02:19;;;;;;;8.02;1.88;;;14.40;65.10;;;;;;5049302;28;20150;-70
2022/11/23 12:05:22;;;;;;;7.78;2.38;;;13.90;62.50;;;;;;5044998;28;20072;-69
2022/11/23 12:08:05;;;;;;;6.40;1.67;;;13.30;63.70;;;;;;5040862;28;20025;-70
2022/11/23 12:10:50;;;;;;;;;;;12.90;65.40;;;;;;5042379;28;20095;-68
2022/11/23 12:13:23;;;;;;;6.45;1.67;;;12.70;66.50;;;;;;5043427;28;20008;-69
2022/11/23 12:16:14;;;;;;;5.72;1.70;;;12.60;67.50;;;;;;5042079;28;20025;-68
2022/11/23 12:18:44;;;;;;;7.45;1.90;;;12.40;67.80;;;;;;5046331;28;20513;-68
2022/11/23 12:21:27;;;;;;;9.38;2.05;;;12.20;67.40;;;;;;5042978;28;20027;-68
2022/11/23 12:24:27;;;;;;;8.80;1.90;;;12.20;67.40;;;;;;5045813;28;20036;-68
2022/11/23 12:27:29;;;;;;;5.85;1.88;;;12.40;67.50;;;;;;5031997;28;20549;-68
2022/11/23 12:30:26;;;;;;;7.47;2.00;;;12.90;66.10;;;;;;5059270;28;20111;-69
2022/11/23 12:32:58;;;;;;;5.05;1.58;;;13.10;65.20;;;;;;5037451;28;20041;-68
2022/11/23 12:35:40;;;;;;;7.43;1.85;;;13.30;65.30;;;;;;5046734;28;20103;-67
2022/11/23 12:38:25;;;;;;;5.65;1.70;;;14.00;63.50;;;;;;5047900;28;20061;-68
2022/11/23 12:40:56;;;;;;;6.70;1.60;;;14.30;62.20;;;;;;5047487;28;20044;-68
2022/11/23 12:43:23;;;;;;;6.87;1.70;;;14.30;62.50;;;;;;5046149;28;20037;-69
2022/11/23 12:46:08;;;;;;;5.32;1.50;;;14.70;61.70;;;;;;5040071;28;20051;-68
2022/11/23 12:48:45;;;;;;;5.22;1.65;;;14.60;60.70;;;;;;5042830;28;20075;-68
2022/11/23 12:51:20;;;;;;;4.47;1.33;;;13.90;60.80;;;;;;5045834;28;20574;-67
2022/11/23 12:53:54;;;;;;;4.15;1.50;;;13.70;61.90;;;;;;5043388;28;20023;-70
2022/11/23 12:56:45;;;;;;;5.88;1.52;;;13.60;62.80;;;;;;5046879;28;20451;-68
2022/11/23 12:59:12;;;;;;;4.65;1.60;;;13.90;62.30;;;;;;5047251;28;20527;-67
2022/11/23 13:01:42;;;;;;;7.32;1.50;;;13.90;61.30;;;;;;5047340;28;20025;-67